createdAt,value
2023-02-23T00:01:37.754Z,65.70
2023-02-23T00:04:04.243Z,65.70
2023-02-23T00:06:30.746Z,65.60
2023-02-23T00:08:57.241Z,65.60
2023-02-23T00:11:23.706Z,65.70
2023-02-23T00:13:50.283Z,65.70
2023-02-23T00:16:16.791Z,65.70
2023-02-23T00:18:43.342Z,65.70
2023-02-23T00:21:09.841Z,65.70
2023-02-23T00:23:36.337Z,65.70
2023-02-23T00:26:02.814Z,65.70
2023-02-23T00:28:29.289Z,65.80
2023-02-23T00:30:55.803Z,65.80
2023-02-23T00:33:22.310Z,65.80
2023-02-23T00:35:48.799Z,65.80
2023-02-23T00:38:15.288Z,65.80
2023-02-23T00:40:41.764Z,65.80
2023-02-23T00:43:08.243Z,65.80
2023-02-23T00:45:34.728Z,65.80
2023-02-23T00:48:01.213Z,65.80
2023-02-23T00:50:27.705Z,65.80
2023-02-23T00:52:54.175Z,65.90
2023-02-23T00:55:20.638Z,65.90
2023-02-23T00:57:47.102Z,65.80
2023-02-23T01:00:13.570Z,65.80
2023-02-23T01:02:40.097Z,65.80
2023-02-23T01:05:06.592Z,65.90
2023-02-23T01:07:33.071Z,65.80
2023-02-23T01:09:59.554Z,65.80
2023-02-23T01:12:26.026Z,65.80
2023-02-23T01:14:52.537Z,65.80
2023-02-23T01:17:18.990Z,65.90
2023-02-23T01:19:45.486Z,65.80
2023-02-23T01:22:11.940Z,65.90
2023-02-23T01:24:38.410Z,65.90
2023-02-23T01:27:04.898Z,65.90
2023-02-23T01:29:31.360Z,65.90
2023-02-23T01:31:57.916Z,65.90
2023-02-23T01:34:24.506Z,65.90
2023-02-23T01:36:51.015Z,65.80
2023-02-23T01:39:17.496Z,65.80
2023-02-23T01:41:43.981Z,65.80
2023-02-23T01:44:10.445Z,65.90
2023-02-23T01:46:36.929Z,65.90
2023-02-23T01:49:03.408Z,65.90
2023-02-23T01:51:29.878Z,65.90
2023-02-23T01:53:56.367Z,65.90
2023-02-23T01:56:22.845Z,65.90
2023-02-23T01:58:49.311Z,65.90
2023-02-23T02:01:15.882Z,65.90
2023-02-23T02:03:42.382Z,65.70
2023-02-23T02:06:08.863Z,65.80
2023-02-23T02:08:35.346Z,65.90
2023-02-23T02:11:04.759Z,66.00
2023-02-23T02:13:31.246Z,65.90
2023-02-23T02:15:57.731Z,66.00
2023-02-23T02:18:24.225Z,65.90
2023-02-23T02:20:50.714Z,65.90
2023-02-23T02:23:17.184Z,66.00
2023-02-23T02:25:43.672Z,65.90
2023-02-23T02:28:10.125Z,65.90
2023-02-23T02:30:36.665Z,65.90
2023-02-23T02:33:03.169Z,65.90
2023-02-23T02:35:29.640Z,65.80
2023-02-23T02:37:56.095Z,65.80
2023-02-23T02:40:22.592Z,66.00
2023-02-23T02:42:49.086Z,66.00
2023-02-23T02:45:15.560Z,65.90
2023-02-23T02:47:42.030Z,65.90
2023-02-23T02:50:08.493Z,65.90
2023-02-23T02:52:34.984Z,65.90
2023-02-23T02:55:01.443Z,65.90
2023-02-23T02:57:27.915Z,65.90
2023-02-23T02:59:54.387Z,65.90
2023-02-23T03:02:20.878Z,65.90
2023-02-23T03:04:47.422Z,65.90
2023-02-23T03:07:13.971Z,65.90
2023-02-23T03:09:40.450Z,65.90
2023-02-23T03:12:06.915Z,65.90
2023-02-23T03:14:33.386Z,65.90
2023-02-23T03:16:59.855Z,65.90
2023-02-23T03:19:26.321Z,65.90
2023-02-23T03:21:52.836Z,65.90
2023-02-23T03:24:19.300Z,65.90
2023-02-23T03:26:45.816Z,65.90
2023-02-23T03:29:12.294Z,65.90
2023-02-23T03:31:38.899Z,65.90
2023-02-23T03:34:05.447Z,65.90
2023-02-23T03:36:31.922Z,65.90
2023-02-23T03:38:58.404Z,66.00
2023-02-23T03:41:24.877Z,66.00
2023-02-23T03:43:51.354Z,66.00
2023-02-23T03:46:17.833Z,66.00
2023-02-23T03:48:44.338Z,66.00
2023-02-23T03:51:10.825Z,66.00
2023-02-23T03:53:37.304Z,65.90
2023-02-23T03:56:03.781Z,66.00
2023-02-23T03:58:30.248Z,65.90
2023-02-23T04:00:58.859Z,66.00
2023-02-23T04:03:25.424Z,66.00
2023-02-23T04:05:51.923Z,66.00
2023-02-23T04:08:18.389Z,66.00
2023-02-23T04:10:44.870Z,66.00
2023-02-23T04:13:11.348Z,66.00
2023-02-23T04:15:37.872Z,66.00
2023-02-23T04:18:04.348Z,66.00
2023-02-23T04:20:34.897Z,66.00
2023-02-23T04:23:01.402Z,66.00
2023-02-23T04:25:27.920Z,66.00
2023-02-23T04:27:54.385Z,66.00
2023-02-23T04:30:20.887Z,66.00
2023-02-23T04:32:47.574Z,66.00
2023-02-23T04:35:14.128Z,66.00
2023-02-23T04:37:40.615Z,66.00
2023-02-23T04:40:07.105Z,66.00
2023-02-23T04:42:33.582Z,66.10
2023-02-23T04:45:00.072Z,66.10
2023-02-23T04:47:26.556Z,66.10
2023-02-23T04:49:53.035Z,66.10
2023-02-23T04:52:19.631Z,66.10
2023-02-23T04:54:46.112Z,66.10
2023-02-23T04:57:12.594Z,66.00
2023-02-23T04:59:39.068Z,66.00
2023-02-23T05:02:05.555Z,66.00
2023-02-23T05:04:32.058Z,66.10
2023-02-23T05:06:58.553Z,66.00
2023-02-23T05:09:25.016Z,66.00
2023-02-23T05:11:51.485Z,66.10
2023-02-23T05:14:17.954Z,66.10
2023-02-23T05:16:44.443Z,66.20
2023-02-23T05:19:10.936Z,66.20
2023-02-23T05:21:37.402Z,66.20
2023-02-23T05:24:03.866Z,66.10
2023-02-23T05:26:30.334Z,66.20
2023-02-23T05:28:56.787Z,66.10
2023-02-23T05:31:23.560Z,66.20
2023-02-23T05:33:50.236Z,66.20
2023-02-23T05:36:16.776Z,66.30
2023-02-23T05:38:43.247Z,66.20
2023-02-23T05:41:09.714Z,66.30
2023-02-23T05:43:36.193Z,66.30
2023-02-23T05:46:02.669Z,66.20
2023-02-23T05:48:29.155Z,66.20
2023-02-23T05:50:55.630Z,66.20
2023-02-23T05:53:22.091Z,66.10
2023-02-23T05:55:48.618Z,66.20
2023-02-23T05:58:15.136Z,66.20
2023-02-23T06:00:41.647Z,66.20
2023-02-23T06:03:08.120Z,66.20
2023-02-23T06:05:34.601Z,66.20
2023-02-23T06:08:01.077Z,66.20
2023-02-23T06:10:27.561Z,66.20
2023-02-23T06:12:54.048Z,66.10
2023-02-23T06:15:20.537Z,66.20
2023-02-23T06:17:47.017Z,66.20
2023-02-23T06:20:13.482Z,66.20
2023-02-23T06:22:39.972Z,66.20
2023-02-23T06:25:06.436Z,66.30
2023-02-23T06:27:32.917Z,66.30
2023-02-23T06:29:59.402Z,66.20
2023-02-23T06:32:25.945Z,66.20
2023-02-23T06:34:52.421Z,66.20
2023-02-23T06:37:18.896Z,66.20
2023-02-23T06:39:45.371Z,66.30
2023-02-23T06:42:11.860Z,66.20
2023-02-23T06:44:38.336Z,66.20
2023-02-23T06:47:04.829Z,66.20
2023-02-23T06:49:31.282Z,66.20
2023-02-23T06:51:57.704Z,66.20
2023-02-23T06:54:24.178Z,66.20
2023-02-23T06:56:50.647Z,66.10
2023-02-23T06:59:17.127Z,66.20
2023-02-23T07:01:43.676Z,66.20
2023-02-23T07:04:11.102Z,66.20
2023-02-23T07:06:37.591Z,66.20
2023-02-23T07:09:04.066Z,66.20
2023-02-23T07:11:30.543Z,66.20
2023-02-23T07:13:57.009Z,66.20
2023-02-23T07:16:23.516Z,66.20
2023-02-23T07:18:49.995Z,66.20
2023-02-23T07:21:16.724Z,66.20
2023-02-23T07:23:43.430Z,66.20
2023-02-23T07:26:09.926Z,66.20
2023-02-23T07:28:36.392Z,66.20
2023-02-23T07:31:02.930Z,66.30
2023-02-23T07:33:29.435Z,66.10
2023-02-23T07:35:55.913Z,66.20
2023-02-23T07:38:22.378Z,66.30
2023-02-23T07:40:48.857Z,66.20
2023-02-23T07:43:15.321Z,66.30
2023-02-23T07:45:41.814Z,66.30
2023-02-23T07:48:08.302Z,66.20
2023-02-23T07:50:34.793Z,66.30
2023-02-23T07:53:01.295Z,66.20
2023-02-23T07:55:27.777Z,66.20
2023-02-23T07:57:54.256Z,66.10
2023-02-23T08:00:20.710Z,66.20
2023-02-23T08:02:47.190Z,66.20
2023-02-23T08:05:13.665Z,66.20
2023-02-23T08:07:40.147Z,66.20
2023-02-23T08:10:06.617Z,66.20
2023-02-23T08:12:33.123Z,66.20
2023-02-23T08:14:59.601Z,66.20
2023-02-23T08:17:26.107Z,66.20
2023-02-23T08:19:52.583Z,66.20
2023-02-23T08:22:19.049Z,66.20
2023-02-23T08:24:45.504Z,66.20
2023-02-23T08:27:11.993Z,66.20
2023-02-23T08:29:38.454Z,66.20
2023-02-23T08:32:05.148Z,66.20
2023-02-23T08:34:31.619Z,66.20
2023-02-23T08:36:58.126Z,66.20
2023-02-23T08:39:24.770Z,66.30
2023-02-23T08:41:51.280Z,66.20
2023-02-23T08:44:17.750Z,66.30
2023-02-23T08:46:44.229Z,66.30
2023-02-23T08:49:10.743Z,66.30
2023-02-23T08:51:37.216Z,66.30
2023-02-23T08:54:03.678Z,66.30
2023-02-23T08:56:30.144Z,66.30
2023-02-23T08:58:56.645Z,66.40
2023-02-23T09:01:23.273Z,66.40
2023-02-23T09:03:49.833Z,66.30
2023-02-23T09:06:16.311Z,66.30
2023-02-23T09:08:42.770Z,66.30
2023-02-23T09:11:09.249Z,66.30
2023-02-23T09:13:35.759Z,66.40
2023-02-23T09:16:02.243Z,66.40
2023-02-23T09:18:28.784Z,66.30
2023-02-23T09:20:55.260Z,66.40
2023-02-23T09:23:21.742Z,66.40
2023-02-23T09:25:48.252Z,66.40
2023-02-23T09:28:14.720Z,66.30
2023-02-23T09:30:41.221Z,66.40
2023-02-23T09:33:07.721Z,66.40
2023-02-23T09:35:34.186Z,66.50
2023-02-23T09:38:05.139Z,66.40
2023-02-23T09:40:31.622Z,66.40
2023-02-23T09:42:58.081Z,66.40
2023-02-23T09:45:24.559Z,66.40
2023-02-23T09:47:51.025Z,66.40
2023-02-23T09:50:17.498Z,66.40
2023-02-23T09:52:43.965Z,66.40
2023-02-23T09:55:11.161Z,66.40
2023-02-23T09:57:37.627Z,66.40
2023-02-23T10:00:04.099Z,66.40
2023-02-23T10:02:30.658Z,66.50
2023-02-23T10:04:59.248Z,66.50
2023-02-23T10:07:25.746Z,66.50
2023-02-23T10:09:52.242Z,66.40
2023-02-23T10:12:23.228Z,66.40
2023-02-23T10:14:49.710Z,66.40
2023-02-23T10:17:16.200Z,66.40
2023-02-23T10:19:47.186Z,66.40
2023-02-23T10:22:13.670Z,66.40
2023-02-23T10:24:40.173Z,66.50
2023-02-23T10:27:06.628Z,66.50
2023-02-23T10:29:33.138Z,66.40
2023-02-23T10:31:59.759Z,66.50
2023-02-23T10:34:26.637Z,66.50
2023-02-23T10:36:53.134Z,66.50
2023-02-23T10:39:19.613Z,66.40
2023-02-23T10:41:46.088Z,66.40
2023-02-23T10:44:16.980Z,66.40
2023-02-23T10:46:43.752Z,66.40
2023-02-23T10:49:10.246Z,66.40
2023-02-23T10:51:36.698Z,66.50
2023-02-23T10:54:07.997Z,66.50
2023-02-23T10:56:34.738Z,66.50
2023-02-23T10:59:01.205Z,66.40
2023-02-23T11:01:29.255Z,66.40
2023-02-23T11:04:05.737Z,66.40
2023-02-23T11:06:32.788Z,66.40
2023-02-23T11:08:59.260Z,66.40
2023-02-23T11:11:26.232Z,66.40
2023-02-23T11:13:52.802Z,66.30
2023-02-23T11:16:19.289Z,66.40
2023-02-23T11:18:45.787Z,66.40
2023-02-23T11:21:12.275Z,66.40
2023-02-23T11:23:38.726Z,66.40
2023-02-23T11:26:05.206Z,66.50
2023-02-23T11:28:31.681Z,66.40
2023-02-23T11:30:58.279Z,66.40
2023-02-23T11:33:24.814Z,66.40
2023-02-23T11:35:51.288Z,66.40
2023-02-23T11:38:17.759Z,66.40
2023-02-23T11:40:44.231Z,66.50
2023-02-23T11:43:10.723Z,66.40
2023-02-23T11:45:37.221Z,66.40
2023-02-23T11:48:03.721Z,66.40
2023-02-23T11:50:30.202Z,66.40
2023-02-23T11:52:56.669Z,66.40
2023-02-23T11:55:23.169Z,66.40
2023-02-23T11:57:49.652Z,66.40
2023-02-23T12:00:16.211Z,66.40
2023-02-23T12:02:42.722Z,66.40
2023-02-23T12:05:09.272Z,66.40
2023-02-23T12:07:35.816Z,66.40
2023-02-23T12:10:02.323Z,66.40
2023-02-23T12:12:28.793Z,66.40
2023-02-23T12:14:55.485Z,66.50
2023-02-23T12:17:21.984Z,66.40
2023-02-23T12:19:48.466Z,66.40
2023-02-23T12:22:14.993Z,66.40
2023-02-23T12:24:41.480Z,66.30
2023-02-23T12:27:07.946Z,66.30
2023-02-23T12:29:34.429Z,66.20
2023-02-23T12:32:01.012Z,66.30
2023-02-23T12:34:27.543Z,66.20
2023-02-23T12:36:54.022Z,66.30
2023-02-23T12:39:20.471Z,66.40
2023-02-23T12:41:46.989Z,66.40
2023-02-23T12:44:13.441Z,66.30
2023-02-23T12:46:39.923Z,66.30
2023-02-23T12:49:06.394Z,66.30
2023-02-23T12:51:32.883Z,66.30
2023-02-23T12:53:59.353Z,66.20
2023-02-23T12:56:25.832Z,66.30
2023-02-23T12:58:52.319Z,66.30
2023-02-23T13:01:19.124Z,66.20
2023-02-23T13:03:45.787Z,66.30
2023-02-23T13:06:17.311Z,66.20
2023-02-23T13:08:43.793Z,66.20
2023-02-23T13:11:10.304Z,66.20
2023-02-23T13:13:36.778Z,66.20
2023-02-23T13:16:03.266Z,66.20
2023-02-23T13:18:29.747Z,66.10
2023-02-23T13:20:56.234Z,66.10
2023-02-23T13:23:22.699Z,66.20
2023-02-23T13:25:49.208Z,66.20
2023-02-23T13:28:15.695Z,66.20
2023-02-23T13:30:42.325Z,66.10
2023-02-23T13:33:08.924Z,66.10
2023-02-23T13:35:35.425Z,66.00
2023-02-23T13:38:01.917Z,66.00
2023-02-23T13:40:28.381Z,66.10
2023-02-23T13:42:54.858Z,66.10
2023-02-23T13:45:21.333Z,66.10
2023-02-23T13:47:47.820Z,66.10
2023-02-23T13:50:14.288Z,66.10
2023-02-23T13:52:41.354Z,66.00
2023-02-23T13:55:07.830Z,65.90
2023-02-23T13:57:34.319Z,65.90
2023-02-23T14:00:00.954Z,65.90
2023-02-23T14:02:27.809Z,65.90
2023-02-23T14:04:54.411Z,65.90
2023-02-23T14:07:20.962Z,65.80
2023-02-23T14:09:47.444Z,65.80
2023-02-23T14:12:13.947Z,65.90
2023-02-23T14:14:40.429Z,65.90
2023-02-23T14:17:06.913Z,65.90
2023-02-23T14:19:33.375Z,65.90
2023-02-23T14:21:59.860Z,65.90
2023-02-23T14:24:26.363Z,65.90
2023-02-23T14:26:53.378Z,65.90
2023-02-23T14:29:19.894Z,66.00
2023-02-23T14:31:46.501Z,65.90
2023-02-23T14:34:13.088Z,65.90
2023-02-23T14:36:39.571Z,65.90
2023-02-23T14:39:06.034Z,65.80
2023-02-23T14:41:32.518Z,65.80
2023-02-23T14:43:59.015Z,65.90
2023-02-23T14:46:25.538Z,66.00
2023-02-23T14:48:52.095Z,65.90
2023-02-23T14:51:18.569Z,65.90
2023-02-23T14:53:45.036Z,65.90
2023-02-23T14:56:11.547Z,65.80
2023-02-23T14:58:38.019Z,65.80
2023-02-23T15:01:04.499Z,65.80
2023-02-23T15:03:30.992Z,65.80
2023-02-23T15:05:57.491Z,65.90
2023-02-23T15:08:24.020Z,65.90
2023-02-23T15:10:50.643Z,65.90
2023-02-23T15:13:17.151Z,65.80
2023-02-23T15:15:43.710Z,65.80
2023-02-23T15:18:10.214Z,65.80
2023-02-23T15:20:41.370Z,65.80
2023-02-23T15:23:07.886Z,65.80
2023-02-23T15:25:34.460Z,65.70
2023-02-23T15:28:00.942Z,65.70
2023-02-23T15:30:27.442Z,65.70
2023-02-23T15:32:54.006Z,65.70
2023-02-23T15:35:20.759Z,65.70
2023-02-23T15:37:49.556Z,65.70
2023-02-23T15:40:23.064Z,65.60
2023-02-23T15:42:49.570Z,65.60
2023-02-23T15:45:16.169Z,65.60
2023-02-23T15:47:42.661Z,65.60
2023-02-23T15:50:09.187Z,65.70
2023-02-23T15:52:35.661Z,65.60
2023-02-23T15:55:02.141Z,65.70
2023-02-23T15:57:28.650Z,65.50
2023-02-23T15:59:55.151Z,65.60
2023-02-23T16:02:21.644Z,65.60
2023-02-23T16:04:48.153Z,65.60
2023-02-23T16:07:14.654Z,65.60
2023-02-23T16:09:41.195Z,65.60
2023-02-23T16:12:07.704Z,65.70
2023-02-23T16:14:34.199Z,65.70
2023-02-23T16:17:10.964Z,65.70
2023-02-23T16:19:39.361Z,65.60
2023-02-23T16:22:05.847Z,65.50
2023-02-23T16:24:32.347Z,65.60
2023-02-23T16:26:58.824Z,65.50
2023-02-23T16:29:25.311Z,65.70
2023-02-23T16:31:51.868Z,65.60
2023-02-23T16:34:18.362Z,65.60
2023-02-23T16:36:44.838Z,65.60
2023-02-23T16:39:11.495Z,65.50
2023-02-23T16:41:37.967Z,65.50
2023-02-23T16:44:04.449Z,65.50
2023-02-23T16:46:31.047Z,65.50
2023-02-23T16:48:57.610Z,65.50
2023-02-23T16:51:24.095Z,65.50
2023-02-23T16:53:52.514Z,65.50
2023-02-23T16:56:19.981Z,65.60
2023-02-23T16:58:46.820Z,65.50
2023-02-23T17:01:13.313Z,65.50
2023-02-23T17:03:47.311Z,65.50
2023-02-23T17:06:18.209Z,65.50
2023-02-23T17:08:57.274Z,65.50
2023-02-23T17:11:24.823Z,65.40
2023-02-23T17:13:51.309Z,65.50
2023-02-23T17:16:17.926Z,65.50
2023-02-23T17:18:44.551Z,65.50
2023-02-23T17:21:11.017Z,65.50
2023-02-23T17:23:37.520Z,65.60
2023-02-23T17:26:03.996Z,65.60
2023-02-23T17:28:30.493Z,65.60
2023-02-23T17:30:57.028Z,65.50
2023-02-23T17:33:23.503Z,65.30
2023-02-23T17:35:49.981Z,65.50
2023-02-23T17:38:16.441Z,65.50
2023-02-23T17:40:42.917Z,65.50
2023-02-23T17:43:09.389Z,65.60
2023-02-23T17:45:35.880Z,65.50
2023-02-23T17:48:02.361Z,65.60
2023-02-23T17:50:28.847Z,65.50
2023-02-23T17:52:55.314Z,65.50
2023-02-23T17:55:21.807Z,65.40
2023-02-23T17:57:48.278Z,65.40
2023-02-23T18:00:14.780Z,65.40
2023-02-23T18:02:41.282Z,65.40
2023-02-23T18:05:07.798Z,65.40
2023-02-23T18:07:34.321Z,65.30
2023-02-23T18:10:00.889Z,65.30
2023-02-23T18:12:27.396Z,65.30
2023-02-23T18:14:53.884Z,65.30
2023-02-23T18:17:20.350Z,65.40
2023-02-23T18:19:47.952Z,65.40
2023-02-23T18:22:14.517Z,65.40
2023-02-23T18:24:41.039Z,65.40
2023-02-23T18:27:07.590Z,65.40
2023-02-23T18:29:34.071Z,65.30
2023-02-23T18:32:00.708Z,65.30
2023-02-23T18:34:27.256Z,65.30
2023-02-23T18:36:53.722Z,65.40
2023-02-23T18:39:20.205Z,65.40
2023-02-23T18:41:46.688Z,65.40
2023-02-23T18:44:13.339Z,65.40
2023-02-23T18:46:39.863Z,65.40
2023-02-23T18:49:06.403Z,65.30
2023-02-23T18:51:32.895Z,65.30
2023-02-23T18:53:59.365Z,65.40
2023-02-23T18:56:25.848Z,65.30
2023-02-23T18:58:52.320Z,65.30
2023-02-23T19:01:19.314Z,65.30
2023-02-23T19:03:46.110Z,65.30
2023-02-23T19:06:12.578Z,65.30
2023-02-23T19:08:39.069Z,65.30
2023-02-23T19:11:05.641Z,65.30
2023-02-23T19:13:32.109Z,65.30
2023-02-23T19:15:58.592Z,65.30
2023-02-23T19:18:25.053Z,65.30
2023-02-23T19:20:51.532Z,65.30
2023-02-23T19:23:18.007Z,65.30
2023-02-23T19:25:44.475Z,65.30
2023-02-23T19:28:10.952Z,65.30
2023-02-23T19:30:37.421Z,65.20
2023-02-23T19:33:04.068Z,65.30
2023-02-23T19:35:30.689Z,65.20
2023-02-23T19:37:57.161Z,65.20
2023-02-23T19:40:23.631Z,65.20
2023-02-23T19:42:50.099Z,65.20
2023-02-23T19:45:16.580Z,65.20
2023-02-23T19:47:43.073Z,65.20
2023-02-23T19:50:09.575Z,65.20
2023-02-23T19:52:36.042Z,65.10
2023-02-23T19:55:02.551Z,65.00
2023-02-23T19:57:29.045Z,65.10
2023-02-23T19:59:55.502Z,65.10
2023-02-23T20:02:21.986Z,65.10
2023-02-23T20:04:48.519Z,65.10
2023-02-23T20:07:14.998Z,65.10
2023-02-23T20:09:41.500Z,65.20
2023-02-23T20:12:07.996Z,65.10
2023-02-23T20:14:34.449Z,65.20
2023-02-23T20:17:00.982Z,65.10
2023-02-23T20:19:27.453Z,65.10
2023-02-23T20:21:54.122Z,65.10
2023-02-23T20:24:20.626Z,65.10
2023-02-23T20:26:47.115Z,65.00
2023-02-23T20:29:14.541Z,64.90
2023-02-23T20:31:41.151Z,64.90
2023-02-23T20:34:07.734Z,65.00
2023-02-23T20:36:34.255Z,64.90
2023-02-23T20:39:00.724Z,65.00
2023-02-23T20:41:27.230Z,65.00
2023-02-23T20:43:53.699Z,65.00
2023-02-23T20:46:20.250Z,65.00
2023-02-23T20:48:46.746Z,65.00
2023-02-23T20:51:13.232Z,64.90
2023-02-23T20:53:39.724Z,64.90
2023-02-23T20:56:06.221Z,64.80
2023-02-23T20:58:32.697Z,64.90
2023-02-23T21:00:59.176Z,64.90
2023-02-23T21:03:25.678Z,64.80
2023-02-23T21:05:52.234Z,64.80
2023-02-23T21:08:18.697Z,64.80
2023-02-23T21:10:45.194Z,64.80
2023-02-23T21:13:11.666Z,64.80
2023-02-23T21:15:38.193Z,64.80
2023-02-23T21:18:04.702Z,64.70
2023-02-23T21:20:31.209Z,64.80
2023-02-23T21:22:57.693Z,64.70
2023-02-23T21:25:24.216Z,64.80
2023-02-23T21:27:50.713Z,64.80
2023-02-23T21:30:17.226Z,64.90
2023-02-23T21:32:43.976Z,64.80
2023-02-23T21:35:10.645Z,64.70
2023-02-23T21:37:37.132Z,64.70
2023-02-23T21:40:03.631Z,64.70
2023-02-23T21:42:30.119Z,64.70
2023-02-23T21:44:56.622Z,64.60
2023-02-23T21:47:23.084Z,64.70
2023-02-23T21:49:49.544Z,64.60
2023-02-23T21:52:15.991Z,64.60
2023-02-23T21:54:42.459Z,64.70
2023-02-23T21:57:08.927Z,64.70
2023-02-23T21:59:35.387Z,64.70
2023-02-23T22:02:01.966Z,64.60
2023-02-23T22:04:28.471Z,64.60
2023-02-23T22:06:54.950Z,64.60
2023-02-23T22:09:21.440Z,64.60
2023-02-23T22:11:47.940Z,64.60
2023-02-23T22:14:14.430Z,64.60
2023-02-23T22:16:40.927Z,64.70
2023-02-23T22:19:07.461Z,64.50
2023-02-23T22:21:33.956Z,64.60
2023-02-23T22:24:00.420Z,64.60
2023-02-23T22:26:26.934Z,64.60
2023-02-23T22:28:53.422Z,64.60
2023-02-23T22:31:20.418Z,64.50
2023-02-23T22:33:47.062Z,64.50
2023-02-23T22:36:13.561Z,64.50
2023-02-23T22:38:40.030Z,64.50
2023-02-23T22:41:06.535Z,64.50
2023-02-23T22:43:33.007Z,64.40
2023-02-23T22:45:59.505Z,64.50
2023-02-23T22:48:25.989Z,64.50
2023-02-23T22:50:52.493Z,64.40
2023-02-23T22:53:18.960Z,64.40
2023-02-23T22:55:45.442Z,64.40
2023-02-23T22:58:13.020Z,64.40
2023-02-23T23:00:39.517Z,64.20
2023-02-23T23:03:06.028Z,64.30
2023-02-23T23:05:32.577Z,64.20
2023-02-23T23:07:59.053Z,64.30
2023-02-23T23:10:25.536Z,64.40
2023-02-23T23:12:53.920Z,64.30
2023-02-23T23:15:20.419Z,64.30
2023-02-23T23:17:46.907Z,64.20
2023-02-23T23:20:13.367Z,64.20
2023-02-23T23:22:41.809Z,64.30
2023-02-23T23:25:08.262Z,64.30
2023-02-23T23:27:34.737Z,64.20
2023-02-23T23:30:01.234Z,64.20
2023-02-23T23:32:28.034Z,64.20
2023-02-23T23:34:54.610Z,64.20
2023-02-23T23:37:21.079Z,64.10
2023-02-23T23:39:47.549Z,64.10
2023-02-23T23:42:14.020Z,64.10
2023-02-23T23:44:40.519Z,64.00
2023-02-23T23:47:07.018Z,64.10
2023-02-23T23:49:33.504Z,63.90
2023-02-23T23:52:00.108Z,64.00
2023-02-23T23:54:26.613Z,64.00
2023-02-23T23:56:53.096Z,64.00
2023-02-23T23:59:19.559Z,63.90
